createdAt,value
2023-04-15T00:00:59.531Z,7.53
2023-04-15T00:03:26.490Z,7.20
2023-04-15T00:05:53.316Z,8.40
2023-04-15T00:08:20.533Z,8.32
2023-04-15T00:10:47.091Z,6.30
2023-04-15T00:13:13.708Z,7.27
2023-04-15T00:15:40.624Z,6.43
2023-04-15T00:18:08.244Z,7.40
2023-04-15T00:20:35.347Z,8.70
2023-04-15T00:23:04.175Z,6.13
2023-04-15T00:25:30.810Z,7.30
2023-04-15T00:27:57.382Z,7.68
2023-04-15T00:30:24.078Z,9.82
2023-04-15T00:32:50.819Z,7.63
2023-04-15T00:35:21.749Z,5.93
2023-04-15T00:37:50.313Z,10.50
2023-04-15T00:40:19.512Z,7.63
2023-04-15T00:42:46.003Z,7.38
2023-04-15T00:45:13.897Z,8.75
2023-04-15T00:47:43.042Z,10.88
2023-04-15T00:50:11.152Z,8.70
2023-04-15T00:52:38.350Z,6.70
2023-04-15T00:55:06.049Z,9.18
2023-04-15T00:57:33.220Z,10.43
2023-04-15T01:00:00.985Z,6.93
2023-04-15T01:02:28.120Z,9.30
2023-04-15T01:04:54.789Z,8.50
2023-04-15T01:07:21.414Z,8.13
2023-04-15T01:09:48.062Z,9.00
2023-04-15T01:12:16.428Z,7.93
2023-04-15T01:14:43.104Z,9.27
2023-04-15T01:17:09.741Z,8.40
2023-04-15T01:19:37.212Z,8.77
2023-04-15T01:22:04.116Z,8.63
2023-04-15T01:24:32.077Z,8.02
2023-04-15T01:26:59.294Z,8.83
2023-04-15T01:29:25.805Z,9.00
2023-04-15T01:31:53.705Z,6.32
2023-04-15T01:34:20.963Z,8.23
2023-04-15T01:36:47.632Z,7.80
2023-04-15T01:39:14.734Z,8.00
2023-04-15T01:41:42.376Z,9.27
2023-04-15T01:44:09.324Z,9.45
2023-04-15T01:46:36.325Z,7.40
2023-04-15T01:49:03.067Z,7.75
2023-04-15T01:51:32.066Z,7.33
2023-04-15T01:53:58.607Z,7.47
2023-04-15T01:56:25.360Z,9.43
2023-04-15T01:58:52.770Z,7.78
2023-04-15T02:01:19.804Z,9.13
2023-04-15T02:03:47.728Z,8.13
2023-04-15T02:06:15.340Z,8.65
2023-04-15T02:08:41.813Z,8.02
2023-04-15T02:11:08.460Z,9.80
2023-04-15T02:13:35.082Z,11.25
2023-04-15T02:16:01.662Z,8.53
2023-04-15T02:18:28.243Z,8.00
2023-04-15T02:20:56.690Z,9.68
2023-04-15T02:23:23.219Z,7.88
2023-04-15T02:25:53.522Z,6.95
2023-04-15T02:28:21.070Z,10.40
2023-04-15T02:30:50.808Z,9.75
2023-04-15T02:33:17.552Z,7.93
2023-04-15T02:35:45.354Z,9.38
2023-04-15T02:38:12.306Z,9.80
2023-04-15T02:40:38.825Z,9.40
2023-04-15T02:43:07.322Z,9.70
2023-04-15T02:45:34.827Z,9.50
2023-04-15T02:48:06.238Z,10.52
2023-04-15T02:50:33.318Z,8.48
2023-04-15T02:53:01.677Z,9.00
2023-04-15T02:55:29.252Z,9.20
2023-04-15T02:57:56.213Z,9.52
2023-04-15T03:00:25.215Z,9.07
2023-04-15T03:02:56.392Z,8.82
2023-04-15T03:05:26.117Z,11.37
2023-04-15T03:07:53.014Z,10.73
2023-04-15T03:10:20.372Z,9.38
2023-04-15T03:12:47.253Z,8.95
2023-04-15T03:15:17.724Z,10.57
2023-04-15T03:17:49.544Z,7.90
2023-04-15T03:20:16.997Z,8.02
2023-04-15T03:22:43.601Z,8.80
2023-04-15T03:25:11.430Z,10.25
2023-04-15T03:27:38.661Z,11.45
2023-04-15T03:30:06.664Z,8.20
2023-04-15T03:32:35.960Z,11.52
2023-04-15T03:35:02.633Z,10.90
2023-04-15T03:37:29.185Z,10.32
2023-04-15T03:39:55.734Z,10.80
2023-04-15T03:42:22.259Z,11.83
2023-04-15T03:44:48.776Z,8.65
2023-04-15T03:47:15.601Z,9.57
2023-04-15T03:49:42.109Z,10.02
2023-04-15T03:52:08.598Z,9.43
2023-04-15T03:54:35.081Z,11.50
2023-04-15T03:57:01.662Z,7.35
2023-04-15T03:59:28.194Z,9.63
2023-04-15T04:01:54.774Z,11.25
2023-04-15T04:04:21.671Z,10.90
2023-04-15T04:06:48.196Z,9.13
2023-04-15T04:09:14.661Z,8.68
2023-04-15T04:11:41.288Z,11.35
2023-04-15T04:14:07.798Z,11.73
2023-04-15T04:16:34.340Z,13.95
2023-04-15T04:19:01.147Z,12.87
2023-04-15T04:21:28.107Z,10.48
2023-04-15T04:23:54.892Z,9.77
2023-04-15T04:26:21.722Z,11.07
2023-04-15T04:28:48.225Z,9.95
2023-04-15T04:31:14.931Z,11.27
2023-04-15T04:33:41.625Z,11.02
2023-04-15T04:36:08.171Z,10.23
2023-04-15T04:38:34.745Z,10.65
2023-04-15T04:41:01.301Z,11.55
2023-04-15T04:43:27.853Z,12.10
2023-04-15T04:45:54.458Z,10.70
2023-04-15T04:48:21.266Z,12.55
2023-04-15T04:50:48.016Z,12.98
2023-04-15T04:53:15.056Z,12.40
2023-04-15T04:55:41.545Z,10.97
2023-04-15T04:58:08.040Z,12.00
2023-04-15T05:00:34.762Z,16.35
2023-04-15T05:03:01.468Z,11.75
2023-04-15T05:05:28.095Z,11.07
2023-04-15T05:07:54.612Z,13.53
2023-04-15T05:10:21.653Z,11.52
2023-04-15T05:12:48.186Z,13.70
2023-04-15T05:15:14.650Z,14.07
2023-04-15T05:17:41.225Z,12.57
2023-04-15T05:20:08.288Z,13.97
2023-04-15T05:22:34.752Z,12.63
2023-04-15T05:25:01.241Z,13.95
2023-04-15T05:27:27.741Z,14.20
2023-04-15T05:29:54.238Z,13.45
2023-04-15T05:32:20.805Z,13.07
2023-04-15T05:34:47.652Z,13.88
2023-04-15T05:37:14.222Z,14.82
2023-04-15T05:39:40.718Z,15.95
2023-04-15T05:42:07.590Z,13.55
2023-04-15T05:44:34.189Z,13.40
2023-04-15T05:47:00.900Z,13.60
2023-04-15T05:49:27.532Z,11.48
2023-04-15T05:51:54.053Z,13.57
2023-04-15T05:54:21.961Z,16.67
2023-04-15T05:56:48.881Z,13.20
2023-04-15T05:59:15.623Z,13.13
2023-04-15T06:01:42.111Z,12.73
2023-04-15T06:04:09.769Z,11.75
2023-04-15T06:06:36.405Z,12.88
2023-04-15T06:09:03.117Z,15.77
2023-04-15T06:11:29.798Z,12.90
2023-04-15T06:13:56.588Z,16.98
2023-04-15T06:16:23.364Z,15.20
2023-04-15T06:18:49.901Z,12.95
2023-04-15T06:21:16.362Z,14.70
2023-04-15T06:23:42.878Z,17.00
2023-04-15T06:26:09.471Z,14.75
2023-04-15T06:28:36.142Z,19.15
2023-04-15T06:31:03.144Z,20.38
2023-04-15T06:33:29.641Z,15.47
2023-04-15T06:35:56.149Z,17.05
2023-04-15T06:38:22.638Z,17.23
2023-04-15T06:40:49.136Z,19.67
2023-04-15T06:43:15.681Z,16.65
2023-04-15T06:45:42.165Z,17.00
2023-04-15T06:48:08.647Z,17.63
2023-04-15T06:50:35.721Z,18.35
2023-04-15T06:53:02.986Z,16.30
2023-04-15T06:55:29.629Z,18.17
2023-04-15T06:57:56.190Z,20.87
2023-04-15T07:00:22.828Z,23.83
2023-04-15T07:02:49.382Z,19.38
2023-04-15T07:05:16.076Z,18.63
2023-04-15T07:07:42.743Z,20.10
2023-04-15T07:10:10.002Z,25.83
2023-04-15T07:12:36.567Z,22.17
2023-04-15T07:15:03.553Z,70.20
2023-04-15T07:17:30.197Z,37.88
2023-04-15T07:19:56.841Z,16.05
2023-04-15T07:22:23.364Z,20.43
2023-04-15T07:24:49.918Z,13.13
2023-04-15T07:27:17.913Z,13.35
2023-04-15T07:29:44.425Z,15.82
2023-04-15T07:32:11.344Z,14.88
2023-04-15T07:34:38.104Z,12.60
2023-04-15T07:37:04.662Z,11.55
2023-04-15T07:39:31.435Z,15.02
2023-04-15T07:41:58.998Z,13.68
2023-04-15T07:44:26.907Z,12.13
2023-04-15T07:46:53.732Z,11.63
2023-04-15T07:49:21.410Z,13.13
2023-04-15T07:51:49.034Z,11.30
2023-04-15T07:54:16.262Z,10.30
2023-04-15T07:56:43.015Z,28.15
2023-04-15T07:59:10.412Z,14.50
2023-04-15T08:01:37.702Z,9.75
2023-04-15T08:04:04.422Z,10.40
2023-04-15T08:06:31.260Z,10.95
2023-04-15T08:08:57.910Z,11.00
2023-04-15T08:11:24.864Z,11.47
2023-04-15T08:13:52.474Z,8.38
2023-04-15T08:16:27.822Z,10.20
2023-04-15T08:18:56.072Z,11.35
2023-04-15T08:21:22.796Z,8.77
2023-04-15T08:23:50.947Z,11.53
2023-04-15T08:26:18.307Z,10.60
2023-04-15T08:28:45.661Z,18.58
2023-04-15T08:31:13.155Z,15.48
2023-04-15T08:33:39.706Z,12.23
2023-04-15T08:36:07.465Z,12.87
2023-04-15T08:38:34.314Z,14.38
2023-04-15T08:41:22.142Z,30.52
2023-04-15T08:43:58.948Z,12.05
2023-04-15T08:46:26.092Z,11.45
2023-04-15T08:48:56.475Z,17.87
2023-04-15T08:51:24.979Z,12.52
2023-04-15T08:53:52.696Z,31.25
2023-04-15T08:56:20.257Z,13.23
2023-04-15T08:58:47.165Z,13.57
2023-04-15T09:01:13.833Z,18.80
2023-04-15T09:03:40.886Z,19.10
2023-04-15T09:06:07.765Z,16.08
2023-04-15T09:08:37.081Z,13.82
2023-04-15T09:11:04.054Z,11.63
2023-04-15T09:13:31.161Z,9.27
2023-04-15T09:15:58.644Z,9.60
2023-04-15T09:18:30.745Z,9.98
2023-04-15T09:21:05.557Z,11.20
2023-04-15T09:23:32.559Z,9.35
2023-04-15T09:25:59.182Z,16.40
2023-04-15T09:28:28.714Z,15.00
2023-04-15T09:31:02.686Z,11.95
2023-04-15T09:33:30.076Z,7.70
2023-04-15T09:36:06.842Z,9.43
2023-04-15T09:38:33.263Z,8.60
2023-04-15T09:40:59.772Z,15.60
2023-04-15T09:43:44.477Z,13.85
2023-04-15T09:46:11.230Z,7.97
2023-04-15T09:48:37.815Z,6.47
2023-04-15T09:51:04.349Z,30.17
2023-04-15T09:53:34.928Z,44.47
2023-04-15T09:56:02.479Z,20.88
2023-04-15T09:58:33.617Z,8.93
2023-04-15T10:01:01.791Z,15.95
2023-04-15T10:03:31.562Z,15.40
2023-04-15T10:06:00.158Z,8.10
2023-04-15T10:08:32.848Z,11.93
2023-04-15T10:11:01.916Z,8.82
2023-04-15T10:13:33.318Z,9.02
2023-04-15T10:16:10.779Z,9.43
2023-04-15T10:18:44.333Z,8.73
2023-04-15T10:21:11.318Z,6.75
2023-04-15T10:23:38.540Z,6.20
2023-04-15T10:26:05.434Z,7.80
2023-04-15T10:28:32.318Z,7.33
2023-04-15T10:30:59.813Z,6.18
2023-04-15T10:33:27.712Z,6.45
2023-04-15T10:35:55.883Z,5.45
2023-04-15T10:38:39.987Z,4.40
2023-04-15T10:41:19.565Z,5.57
2023-04-15T10:43:57.847Z,4.78
2023-04-15T10:46:41.516Z,5.53
2023-04-15T10:49:08.131Z,5.07
2023-04-15T10:51:41.471Z,5.03
2023-04-15T10:54:16.912Z,5.33
2023-04-15T10:56:45.479Z,6.45
2023-04-15T10:59:12.068Z,6.90
2023-04-15T11:02:13.396Z,6.13
2023-04-15T11:04:59.953Z,5.10
2023-04-15T11:07:49.529Z,5.07
2023-04-15T11:10:35.867Z,4.22
2023-04-15T11:13:15.491Z,4.05
2023-04-15T11:15:45.021Z,7.63
2023-04-15T11:18:22.539Z,5.65
2023-04-15T11:20:51.048Z,5.87
2023-04-15T11:23:19.604Z,7.05
2023-04-15T11:25:46.202Z,9.15
2023-04-15T11:28:13.222Z,4.35
2023-04-15T11:30:40.489Z,10.82
2023-04-15T11:33:09.075Z,7.27
2023-04-15T11:35:36.113Z,8.35
2023-04-15T11:38:04.172Z,5.75
2023-04-15T11:40:33.206Z,5.47
2023-04-15T11:43:06.748Z,6.00
2023-04-15T11:45:33.576Z,5.80
2023-04-15T11:48:11.496Z,6.22
2023-04-15T11:50:40.739Z,5.53
2023-04-15T11:53:09.953Z,4.22
2023-04-15T11:55:47.258Z,4.35
2023-04-15T11:58:16.935Z,4.77
2023-04-15T12:00:52.979Z,6.10
2023-04-15T12:03:29.732Z,8.57
2023-04-15T12:06:19.124Z,2.72
2023-04-15T12:08:59.147Z,4.53
2023-04-15T12:11:36.862Z,15.33
2023-04-15T12:14:05.309Z,6.38
2023-04-15T12:16:36.986Z,8.13
2023-04-15T12:19:21.900Z,11.40
2023-04-15T12:21:49.462Z,6.20
2023-04-15T12:24:21.041Z,4.13
2023-04-15T12:26:53.657Z,5.53
2023-04-15T12:29:24.768Z,2.75
2023-04-15T12:31:58.474Z,6.72
2023-04-15T12:34:38.680Z,2.50
2023-04-15T12:37:07.773Z,3.27
2023-04-15T12:39:39.651Z,2.00
2023-04-15T12:42:06.638Z,2.10
2023-04-15T12:44:34.072Z,3.95
2023-04-15T12:47:00.726Z,1.90
2023-04-15T12:49:28.043Z,1.20
2023-04-15T12:51:56.370Z,3.22
2023-04-15T12:54:23.336Z,1.98
2023-04-15T12:56:50.843Z,1.55
2023-04-15T12:59:20.268Z,3.08
2023-04-15T13:01:48.827Z,2.80
2023-04-15T13:04:16.436Z,6.85
2023-04-15T13:06:43.556Z,2.17
2023-04-15T13:09:10.232Z,3.85
2023-04-15T13:11:36.801Z,3.65
2023-04-15T13:14:05.882Z,3.37
2023-04-15T13:16:33.395Z,2.97
2023-04-15T13:19:00.440Z,3.58
2023-04-15T13:21:27.714Z,3.88
2023-04-15T13:23:54.738Z,3.55
2023-04-15T13:26:21.265Z,3.03
2023-04-15T13:28:48.145Z,3.28
2023-04-15T13:31:14.806Z,3.00
2023-04-15T13:33:41.306Z,3.35
2023-04-15T13:36:08.294Z,3.70
2023-04-15T13:38:34.790Z,3.50
2023-04-15T13:41:01.287Z,3.42
2023-04-15T13:43:27.745Z,3.38
2023-04-15T13:45:54.379Z,3.90
2023-04-15T13:48:21.035Z,3.10
2023-04-15T13:50:47.453Z,3.37
2023-04-15T13:53:14.034Z,3.13
2023-04-15T13:55:42.519Z,3.70
2023-04-15T13:58:09.826Z,4.63
2023-04-15T14:00:36.634Z,3.63
2023-04-15T14:03:03.489Z,3.67
2023-04-15T14:05:30.339Z,5.20
2023-04-15T14:07:56.865Z,3.40
2023-04-15T14:10:23.376Z,5.10
2023-04-15T14:12:49.874Z,5.30
2023-04-15T14:15:16.354Z,5.63
2023-04-15T14:17:42.957Z,4.22
2023-04-15T14:20:09.904Z,6.63
2023-04-15T14:22:36.430Z,4.97
2023-04-15T14:25:03.134Z,5.40
2023-04-15T14:27:29.681Z,6.67
2023-04-15T14:29:57.710Z,4.90
2023-04-15T14:32:26.114Z,5.35
2023-04-15T14:34:52.614Z,4.10
2023-04-15T14:37:19.272Z,3.20
2023-04-15T14:39:45.724Z,7.93
2023-04-15T14:42:12.230Z,6.07
2023-04-15T14:44:38.770Z,3.95
2023-04-15T14:47:05.911Z,3.78
2023-04-15T14:49:32.495Z,5.80
2023-04-15T14:51:58.983Z,5.60
2023-04-15T14:54:25.520Z,3.55
2023-04-15T14:56:51.987Z,6.65
2023-04-15T14:59:18.519Z,5.55
2023-04-15T15:01:45.151Z,5.13
2023-04-15T15:04:12.203Z,9.10
2023-04-15T15:06:39.699Z,5.38
2023-04-15T15:09:06.594Z,6.28
2023-04-15T15:11:33.321Z,7.93
2023-04-15T15:13:59.878Z,7.68
2023-04-15T15:16:27.569Z,10.50
2023-04-15T15:18:54.109Z,7.13
2023-04-15T15:21:20.742Z,5.35
2023-04-15T15:23:48.233Z,5.05
2023-04-15T15:26:15.033Z,6.93
2023-04-15T15:28:42.202Z,5.07
2023-04-15T15:31:09.017Z,9.98
2023-04-15T15:33:35.702Z,7.88
2023-04-15T15:36:03.627Z,7.40
2023-04-15T15:38:30.290Z,4.80
2023-04-15T15:40:56.750Z,7.80
2023-04-15T15:43:23.252Z,3.78
2023-04-15T15:45:52.192Z,11.80
2023-04-15T15:48:18.781Z,5.50
2023-04-15T15:50:45.778Z,5.22
2023-04-15T15:53:17.816Z,4.83
2023-04-15T15:55:44.367Z,10.23
2023-04-15T15:58:11.177Z,5.45
2023-04-15T16:00:37.844Z,6.38
2023-04-15T16:03:07.152Z,7.13
2023-04-15T16:05:35.363Z,8.40
2023-04-15T16:08:02.105Z,8.13
2023-04-15T16:10:28.896Z,8.50
2023-04-15T16:12:55.745Z,8.15
2023-04-15T16:15:23.273Z,6.53
2023-04-15T16:17:49.757Z,5.60
2023-04-15T16:20:16.676Z,7.18
2023-04-15T16:22:43.357Z,9.60
2023-04-15T16:25:10.546Z,6.00
2023-04-15T16:27:54.155Z,6.95
2023-04-15T16:30:24.086Z,7.87
2023-04-15T16:32:51.376Z,8.98
2023-04-15T16:35:18.367Z,8.90
2023-04-15T16:37:44.855Z,9.93
2023-04-15T16:40:11.998Z,11.73
2023-04-15T16:42:38.525Z,6.63
2023-04-15T16:45:05.466Z,8.60
2023-04-15T16:47:32.019Z,4.78
2023-04-15T16:49:58.509Z,11.80
2023-04-15T16:52:24.964Z,8.15
2023-04-15T16:54:51.885Z,10.27
2023-04-15T16:57:18.393Z,11.55
2023-04-15T16:59:44.914Z,14.73
2023-04-15T17:02:13.151Z,13.13
2023-04-15T17:04:39.888Z,14.57
2023-04-15T17:07:06.804Z,13.37
2023-04-15T17:09:33.291Z,10.27
2023-04-15T17:11:59.902Z,10.40
2023-04-15T17:14:28.595Z,10.00
2023-04-15T17:16:55.645Z,11.40
2023-04-15T17:19:22.204Z,12.40
2023-04-15T17:21:48.764Z,10.10
2023-04-15T17:24:15.236Z,9.45
2023-04-15T17:26:41.728Z,7.00
2023-04-15T17:29:08.263Z,6.45
2023-04-15T17:31:34.887Z,7.77
2023-04-15T17:34:09.972Z,7.22
2023-04-15T17:36:37.951Z,8.07
2023-04-15T17:39:04.784Z,5.65
2023-04-15T17:41:31.414Z,6.30
2023-04-15T17:43:57.932Z,5.17
2023-04-15T17:46:24.446Z,9.30
2023-04-15T17:48:50.959Z,10.57
2023-04-15T17:51:17.478Z,6.93
2023-04-15T17:53:43.988Z,8.10
2023-04-15T17:56:10.398Z,6.10
2023-04-15T17:58:39.053Z,8.93
2023-04-15T18:01:06.206Z,8.90
2023-04-15T18:03:32.855Z,10.38
2023-04-15T18:06:01.246Z,9.98
2023-04-15T18:08:28.876Z,6.07
2023-04-15T18:10:55.633Z,5.47
2023-04-15T18:13:22.133Z,5.03
2023-04-15T18:15:49.496Z,6.45
2023-04-15T18:18:16.115Z,5.47
2023-04-15T18:20:42.654Z,5.17
2023-04-15T18:23:09.220Z,7.88
2023-04-15T18:25:38.044Z,8.40
2023-04-15T18:28:05.331Z,10.65
2023-04-15T18:30:31.878Z,8.52
2023-04-15T18:32:58.370Z,5.43
2023-04-15T18:35:24.869Z,12.25
2023-04-15T18:37:52.499Z,9.13
2023-04-15T18:40:19.049Z,7.40
2023-04-15T18:42:45.684Z,7.55
2023-04-15T18:45:12.138Z,13.27
2023-04-15T18:47:38.662Z,5.55
2023-04-15T18:50:05.636Z,10.45
2023-04-15T18:52:33.711Z,13.10
2023-04-15T18:55:00.913Z,8.45
2023-04-15T18:57:31.273Z,7.97
2023-04-15T19:00:01.122Z,8.20
2023-04-15T19:02:27.796Z,8.57
2023-04-15T19:04:54.412Z,5.25
2023-04-15T19:07:21.418Z,8.38
2023-04-15T19:09:47.832Z,9.73
2023-04-15T19:12:14.301Z,8.10
2023-04-15T19:14:41.246Z,9.68
2023-04-15T19:17:07.788Z,8.80
2023-04-15T19:19:34.332Z,11.35
2023-04-15T19:22:01.676Z,12.77
2023-04-15T19:24:28.274Z,10.32
2023-04-15T19:26:54.775Z,7.78
2023-04-15T19:29:21.908Z,6.20
2023-04-15T19:31:48.664Z,9.43
2023-04-15T19:34:15.318Z,7.40
2023-04-15T19:36:42.596Z,9.90
2023-04-15T19:39:09.788Z,6.10
2023-04-15T19:41:36.340Z,6.90
2023-04-15T19:44:04.370Z,11.68
2023-04-15T19:46:31.049Z,4.80
2023-04-15T19:48:57.830Z,6.97
2023-04-15T19:51:24.996Z,11.00
2023-04-15T19:53:53.938Z,9.00
2023-04-15T19:56:20.675Z,8.35
2023-04-15T19:58:52.600Z,10.53
2023-04-15T20:01:20.256Z,11.45
2023-04-15T20:03:47.446Z,8.15
2023-04-15T20:06:17.220Z,11.88
2023-04-15T20:08:43.705Z,9.68
2023-04-15T20:11:10.606Z,11.43
2023-04-15T20:13:37.104Z,10.20
2023-04-15T20:16:05.845Z,11.02
2023-04-15T20:18:32.496Z,14.50
2023-04-15T20:20:59.075Z,10.70
2023-04-15T20:23:25.754Z,11.43
2023-04-15T20:25:52.471Z,11.63
2023-04-15T20:28:19.280Z,13.40
2023-04-15T20:30:46.067Z,13.80
2023-04-15T20:33:14.042Z,11.57
2023-04-15T20:35:40.538Z,10.97
2023-04-15T20:38:07.039Z,12.00
2023-04-15T20:40:33.749Z,18.17
2023-04-15T20:43:00.520Z,7.75
2023-04-15T20:45:27.064Z,10.25
2023-04-15T20:47:55.172Z,11.20
2023-04-15T20:50:21.660Z,14.75
2023-04-15T20:52:48.146Z,15.68
2023-04-15T20:55:14.691Z,16.25
2023-04-15T20:57:41.270Z,14.05
2023-04-15T21:00:09.430Z,15.47
2023-04-15T21:02:36.055Z,14.98
2023-04-15T21:05:02.848Z,8.98
2023-04-15T21:07:29.334Z,12.20
2023-04-15T21:09:56.096Z,14.82
2023-04-15T21:12:22.552Z,22.17
2023-04-15T21:14:50.418Z,14.60
2023-04-15T21:17:16.923Z,17.95
2023-04-15T21:19:43.470Z,16.17
2023-04-15T21:22:09.948Z,13.23
2023-04-15T21:24:36.441Z,11.43
2023-04-15T21:27:03.300Z,18.30
2023-04-15T21:29:29.850Z,15.27
2023-04-15T21:31:56.451Z,11.77
2023-04-15T21:34:22.999Z,12.18
2023-04-15T21:36:49.428Z,16.40
2023-04-15T21:39:17.022Z,20.70
2023-04-15T21:41:43.527Z,16.15
2023-04-15T21:44:10.783Z,16.83
2023-04-15T21:46:38.084Z,19.98
2023-04-15T21:49:07.087Z,18.47
2023-04-15T21:51:33.745Z,13.13
2023-04-15T21:54:00.315Z,18.50
2023-04-15T21:56:26.806Z,25.35
2023-04-15T21:58:56.928Z,20.08
2023-04-15T22:01:24.187Z,19.90
2023-04-15T22:03:51.041Z,20.10
2023-04-15T22:06:18.050Z,24.45
2023-04-15T22:08:55.006Z,24.73
2023-04-15T22:11:26.850Z,18.48
2023-04-15T22:13:54.234Z,17.83
2023-04-15T22:16:20.991Z,21.15
2023-04-15T22:18:47.759Z,21.80
2023-04-15T22:21:14.405Z,20.67
2023-04-15T22:23:41.135Z,25.20
2023-04-15T22:26:07.677Z,19.90
2023-04-15T22:28:34.382Z,25.30
2023-04-15T22:31:00.860Z,25.73
2023-04-15T22:33:27.440Z,32.95
2023-04-15T22:35:53.923Z,26.35
2023-04-15T22:38:20.734Z,30.70
2023-04-15T22:40:47.238Z,21.77
2023-04-15T22:43:14.870Z,30.83
2023-04-15T22:45:41.394Z,25.58
2023-04-15T22:48:07.915Z,28.88
2023-04-15T22:50:37.058Z,22.00
2023-04-15T22:53:03.629Z,27.23
2023-04-15T22:55:30.131Z,32.47
2023-04-15T22:57:57.035Z,30.73
2023-04-15T23:00:23.527Z,25.00
2023-04-15T23:02:50.105Z,28.57
2023-04-15T23:05:16.740Z,25.45
2023-04-15T23:07:43.329Z,26.17
2023-04-15T23:10:09.998Z,27.23
2023-04-15T23:12:36.530Z,24.33
2023-04-15T23:15:03.786Z,27.23
2023-04-15T23:17:30.330Z,34.60
2023-04-15T23:19:56.882Z,30.90
2023-04-15T23:22:23.487Z,30.02
2023-04-15T23:24:50.015Z,21.58
2023-04-15T23:27:18.940Z,33.50
2023-04-15T23:29:46.008Z,24.23
2023-04-15T23:32:12.592Z,25.55
2023-04-15T23:34:39.119Z,32.50
2023-04-15T23:37:05.856Z,21.08
2023-04-15T23:39:32.422Z,24.97
2023-04-15T23:41:58.932Z,32.17
2023-04-15T23:44:25.552Z,37.70
2023-04-15T23:46:52.134Z,31.85
2023-04-15T23:49:20.320Z,32.03
2023-04-15T23:51:47.420Z,31.10
2023-04-15T23:54:14.729Z,31.70
2023-04-15T23:56:41.242Z,35.15
2023-04-15T23:59:08.247Z,33.60
